VOCP

Details ICAO VOCP (CDP)
Name CUDDAPAH
Region India
Timezone Asia/Kolkata (UTC+5.5)
Plans Departing 1
Arriving 1
Stats Elevation 430 ft / 131 m (AMSL)
Location 14.509961° 78.772832°
Runways 1
Magnetic Variation 0.997° W
Sunrise 2017-12-11 01:00:59 UTC / 2017-12-11 06:30:59 Local
Sunset 2017-12-11 12:18:04 UTC / 2017-12-11 17:48:04 Local
Advertisement - Login to hide

Runways

ID Width Length Bearing (true) Bearing (mag) Surface Threshold Offset Overrun Length
11 49 ft / 15 m 3,516 ft / 1,072 m 108.52° 109.52° Asphalt 0 ft / 0 m 0 ft / 0 m
29 49 ft / 15 m 3,516 ft / 1,072 m 288.53° 289.53° Asphalt 0 ft / 0 m 0 ft / 0 m

Map

Weather


0- 5 10 15 20 25 30 35+ Temperature / ° C

Clouds and Precipitation
Forecast for 2017-12-11 06:00 UTC. Updated an hour ago

Ground ~20,000 ft ~40,000 ft Winds

METAR

VOCP 110400Z VRB02KT 4000 HZ NSC 27/19 Q1016

TAF

Not found

Frequencies

Tower 122.30 MHz TWR
Warning: Do not use this data for real-world aviation or navigation. No guarantee of current accuracy is given.